createdAt,value
2023-01-22T00:00:34.705Z,102299.59
2023-01-22T00:03:01.377Z,102291.25
2023-01-22T00:05:27.854Z,102283.03
2023-01-22T00:07:54.318Z,102280.78
2023-01-22T00:10:20.836Z,102286.03
2023-01-22T00:12:47.369Z,102289.13
2023-01-22T00:15:14.157Z,102286.53
2023-01-22T00:17:40.688Z,102281.88
2023-01-22T00:20:07.707Z,102281.88
2023-01-22T00:22:34.280Z,102217.84
2023-01-22T00:25:00.738Z,102274.25
2023-01-22T00:27:27.179Z,102279.22
2023-01-22T00:29:53.657Z,102280.88
2023-01-22T00:32:20.218Z,102269.41
2023-01-22T00:34:52.153Z,102273.41
2023-01-22T00:37:20.296Z,102234.63
2023-01-22T00:39:47.020Z,102276.69
2023-01-22T00:42:13.561Z,102276.22
2023-01-22T00:44:40.308Z,102254.13
2023-01-22T00:47:06.811Z,102255.44
2023-01-22T00:49:33.258Z,102269.94
2023-01-22T00:51:59.864Z,102252.22
2023-01-22T00:54:26.467Z,102268.97
2023-01-22T00:56:53.043Z,102262.22
2023-01-22T00:59:19.539Z,102266.56
2023-01-22T01:01:46.068Z,102248.88
2023-01-22T01:04:14.421Z,102270.09
2023-01-22T01:06:41.036Z,102272.16
2023-01-22T01:09:07.529Z,102273.56
2023-01-22T01:11:34.345Z,102263.75
2023-01-22T01:14:01.744Z,102261.50
2023-01-22T01:16:31.057Z,102259.16
2023-01-22T01:19:02.581Z,102253.75
2023-01-22T01:21:29.514Z,102253.75
2023-01-22T01:23:57.431Z,102261.84
2023-01-22T01:26:24.774Z,102255.16
2023-01-22T01:28:54.703Z,102244.50
2023-01-22T01:31:22.813Z,102255.56
2023-01-22T01:33:49.949Z,102248.38
2023-01-22T01:36:30.672Z,102222.94
2023-01-22T01:39:05.474Z,102258.88
2023-01-22T01:41:32.383Z,102205.31
2023-01-22T01:44:27.327Z,102254.03
2023-01-22T01:47:24.408Z,102257.28
2023-01-22T01:49:52.931Z,102244.00
2023-01-22T01:52:20.071Z,102222.06
2023-01-22T01:54:50.437Z,102245.09
2023-01-22T01:57:21.314Z,102240.25
2023-01-22T01:59:49.101Z,102242.50
2023-01-22T02:02:16.120Z,102237.53
2023-01-22T02:04:42.705Z,102236.41
2023-01-22T02:07:09.297Z,102199.84
2023-01-22T02:09:35.794Z,102241.59
2023-01-22T02:12:02.591Z,102242.94
2023-01-22T02:14:34.353Z,102248.19
2023-01-22T02:17:22.095Z,102244.50
2023-01-22T02:19:48.735Z,102230.06
2023-01-22T02:22:28.390Z,102198.06
2023-01-22T02:24:54.867Z,102233.25
2023-01-22T02:27:21.689Z,102234.66
2023-01-22T02:29:48.400Z,102205.66
2023-01-22T02:32:15.044Z,102203.53
2023-01-22T02:34:41.719Z,102234.59
2023-01-22T02:37:08.162Z,102231.84
2023-01-22T02:39:34.667Z,102234.34
2023-01-22T02:42:01.381Z,102216.53
2023-01-22T02:44:28.121Z,102234.16
2023-01-22T02:46:54.668Z,102235.75
2023-01-22T02:49:21.208Z,102232.91
2023-01-22T02:51:47.698Z,102222.16
2023-01-22T02:54:14.172Z,102225.44
2023-01-22T02:56:40.601Z,102227.34
2023-01-22T02:59:07.117Z,102234.00
2023-01-22T03:01:33.775Z,102219.69
2023-01-22T03:04:10.830Z,102225.16
2023-01-22T03:06:42.430Z,102232.25
2023-01-22T03:09:10.089Z,102235.41
2023-01-22T03:11:37.832Z,102198.41
2023-01-22T03:14:23.578Z,102238.50
2023-01-22T03:17:09.117Z,102213.59
2023-01-22T03:19:54.212Z,102200.41
2023-01-22T03:22:20.870Z,102216.00
2023-01-22T03:24:53.671Z,102232.72
2023-01-22T03:27:22.292Z,102230.44
2023-01-22T03:29:49.381Z,102228.94
2023-01-22T03:32:16.944Z,102226.75
2023-01-22T03:34:43.471Z,102210.78
2023-01-22T03:37:12.841Z,102219.59
2023-01-22T03:39:39.685Z,102213.66
2023-01-22T03:42:06.675Z,102232.50
2023-01-22T03:44:33.110Z,102221.56
2023-01-22T03:46:59.557Z,102210.63
2023-01-22T03:49:26.011Z,102216.84
2023-01-22T03:51:52.477Z,102223.78
2023-01-22T03:54:19.244Z,102211.41
2023-01-22T03:56:45.678Z,102211.34
2023-01-22T03:59:12.185Z,102184.38
2023-01-22T04:01:38.858Z,102195.47
2023-01-22T04:04:05.396Z,102199.09
2023-01-22T04:06:32.044Z,102216.38
2023-01-22T04:08:58.565Z,102226.19
2023-01-22T04:11:25.115Z,102222.69
2023-01-22T04:13:51.659Z,102229.53
2023-01-22T04:16:18.257Z,102233.69
2023-01-22T04:18:44.962Z,102209.03
2023-01-22T04:21:11.506Z,102216.25
2023-01-22T04:23:37.975Z,102220.75
2023-01-22T04:26:04.606Z,102226.25
2023-01-22T04:28:31.044Z,102225.84
2023-01-22T04:30:57.763Z,102226.97
2023-01-22T04:33:24.276Z,102224.13
2023-01-22T04:35:52.260Z,102224.94
2023-01-22T04:38:19.074Z,102216.88
2023-01-22T04:40:45.634Z,102207.53
2023-01-22T04:43:12.096Z,102180.66
2023-01-22T04:45:38.826Z,102225.91
2023-01-22T04:48:05.674Z,102224.50
2023-01-22T04:50:33.171Z,102218.56
2023-01-22T04:53:00.553Z,102224.69
2023-01-22T04:55:27.615Z,102222.53
2023-01-22T04:57:56.218Z,102207.78
2023-01-22T05:00:23.098Z,102207.22
2023-01-22T05:02:50.214Z,102219.50
2023-01-22T05:05:17.197Z,102222.75
2023-01-22T05:07:43.725Z,102227.53
2023-01-22T05:10:10.680Z,102225.03
2023-01-22T05:12:37.159Z,102218.56
2023-01-22T05:15:07.250Z,102186.88
2023-01-22T05:17:38.731Z,102220.88
2023-01-22T05:20:05.654Z,102219.03
2023-01-22T05:22:32.105Z,102228.88
2023-01-22T05:24:58.581Z,102211.66
2023-01-22T05:27:25.053Z,102227.00
2023-01-22T05:29:51.510Z,102232.94
2023-01-22T05:32:18.231Z,102237.69
2023-01-22T05:34:44.702Z,102236.50
2023-01-22T05:37:11.267Z,102230.72
2023-01-22T05:39:37.720Z,102230.84
2023-01-22T05:42:04.310Z,102224.78
2023-01-22T05:44:33.335Z,102227.50
2023-01-22T05:47:00.051Z,102223.72
2023-01-22T05:49:26.512Z,102222.09
2023-01-22T05:51:52.935Z,102197.69
2023-01-22T05:54:19.472Z,102220.44
2023-01-22T05:56:45.951Z,102228.78
2023-01-22T05:59:12.961Z,102223.56
2023-01-22T06:01:39.525Z,102225.03
2023-01-22T06:04:06.077Z,102216.91
2023-01-22T06:06:32.626Z,102217.41
2023-01-22T06:08:59.740Z,102214.44
2023-01-22T06:11:27.346Z,102225.59
2023-01-22T06:13:54.257Z,102199.88
2023-01-22T06:16:21.132Z,102222.44
2023-01-22T06:18:47.577Z,102223.63
2023-01-22T06:21:14.141Z,102218.03
2023-01-22T06:23:40.597Z,102215.47
2023-01-22T06:26:07.129Z,102216.94
2023-01-22T06:28:33.620Z,102193.34
2023-01-22T06:31:08.127Z,102212.25
2023-01-22T06:33:35.361Z,102215.44
2023-01-22T06:36:02.206Z,102212.31
2023-01-22T06:38:28.966Z,102213.38
2023-01-22T06:40:57.331Z,102220.69
2023-01-22T06:43:24.423Z,102232.63
2023-01-22T06:45:50.968Z,102176.41
2023-01-22T06:48:17.476Z,102188.50
2023-01-22T06:50:44.951Z,102247.16
2023-01-22T06:53:11.563Z,102230.41
2023-01-22T06:55:38.158Z,102233.81
2023-01-22T06:58:04.810Z,102244.00
2023-01-22T07:00:31.301Z,102244.88
2023-01-22T07:02:58.285Z,102227.88
2023-01-22T07:05:24.773Z,102246.75
2023-01-22T07:07:55.025Z,102251.97
2023-01-22T07:10:22.063Z,102264.19
2023-01-22T07:12:49.944Z,102264.03
2023-01-22T07:15:16.972Z,102255.59
2023-01-22T07:17:43.634Z,102266.00
2023-01-22T07:20:10.928Z,102268.63
2023-01-22T07:22:37.380Z,102271.63
2023-01-22T07:25:04.237Z,102279.25
2023-01-22T07:27:32.496Z,102278.59
2023-01-22T07:29:59.145Z,102270.88
2023-01-22T07:32:25.599Z,102285.16
2023-01-22T07:34:52.076Z,102289.78
2023-01-22T07:37:18.576Z,102239.94
2023-01-22T07:39:45.314Z,102290.06
2023-01-22T07:42:12.696Z,102280.94
2023-01-22T07:44:42.055Z,102295.91
2023-01-22T07:47:08.675Z,102291.97
2023-01-22T07:49:35.523Z,102301.09
2023-01-22T07:52:02.016Z,102308.69
2023-01-22T07:54:28.562Z,102298.09
2023-01-22T07:56:55.204Z,102300.63
2023-01-22T07:59:21.786Z,102304.94
2023-01-22T08:01:48.312Z,102298.19
2023-01-22T08:04:14.956Z,102264.28
2023-01-22T08:06:41.411Z,102307.31
2023-01-22T08:09:07.864Z,102243.94
2023-01-22T08:11:34.375Z,102308.59
2023-01-22T08:14:00.905Z,102312.38
2023-01-22T08:16:27.502Z,102307.00
2023-01-22T08:18:54.093Z,102314.69
2023-01-22T08:21:20.583Z,102318.03
2023-01-22T08:23:49.336Z,102319.41
2023-01-22T08:26:16.233Z,102316.75
2023-01-22T08:28:42.897Z,102325.19
2023-01-22T08:31:16.291Z,102324.09
2023-01-22T08:33:45.993Z,102323.06
2023-01-22T08:36:12.502Z,102317.56
2023-01-22T08:38:39.439Z,102311.41
2023-01-22T08:41:05.900Z,102315.38
2023-01-22T08:43:32.642Z,102274.91
2023-01-22T08:45:59.197Z,102320.13
2023-01-22T08:48:25.707Z,102317.81
2023-01-22T08:50:52.172Z,102280.13
2023-01-22T08:53:18.658Z,102278.09
2023-01-22T08:55:50.033Z,102325.66
2023-01-22T08:58:16.935Z,102323.19
2023-01-22T09:00:44.529Z,102326.34
2023-01-22T09:03:11.105Z,102311.13
2023-01-22T09:05:39.795Z,102319.50
2023-01-22T09:08:06.851Z,102314.09
2023-01-22T09:10:33.350Z,102321.78
2023-01-22T09:13:00.426Z,102320.88
2023-01-22T09:15:27.398Z,102319.56
2023-01-22T09:17:53.919Z,102318.59
2023-01-22T09:20:20.806Z,102282.25
2023-01-22T09:22:48.203Z,102295.91
2023-01-22T09:25:15.701Z,102328.28
2023-01-22T09:27:42.210Z,102332.84
2023-01-22T09:30:14.353Z,102280.13
2023-01-22T09:32:41.399Z,102324.03
2023-01-22T09:35:08.416Z,102294.56
2023-01-22T09:37:35.086Z,102321.25
2023-01-22T09:40:01.534Z,102273.03
2023-01-22T09:42:34.369Z,102319.69
2023-01-22T09:45:12.584Z,102321.94
2023-01-22T09:47:52.812Z,102316.50
2023-01-22T09:50:19.587Z,102323.88
2023-01-22T09:52:46.867Z,102265.84
2023-01-22T09:55:16.696Z,102323.03
2023-01-22T09:57:48.713Z,102322.94
2023-01-22T10:00:21.497Z,102305.94
2023-01-22T10:02:52.984Z,102299.25
2023-01-22T10:05:23.982Z,102335.09
2023-01-22T10:08:00.652Z,102327.59
2023-01-22T10:10:28.873Z,102334.38
2023-01-22T10:13:09.993Z,102322.28
2023-01-22T10:15:36.867Z,102321.63
2023-01-22T10:18:28.232Z,102328.34
2023-01-22T10:20:55.551Z,102307.09
2023-01-22T10:23:25.713Z,102326.16
2023-01-22T10:26:01.320Z,102218.06
2023-01-22T10:28:28.319Z,102336.38
2023-01-22T10:30:58.663Z,102323.75
2023-01-22T10:33:27.315Z,102326.59
2023-01-22T10:35:56.778Z,102315.69
2023-01-22T10:38:30.885Z,102314.91
2023-01-22T10:40:58.444Z,102317.34
2023-01-22T10:43:32.920Z,102296.47
2023-01-22T10:46:05.449Z,102310.69
2023-01-22T10:48:33.245Z,102304.09
2023-01-22T10:51:16.365Z,102323.72
2023-01-22T10:53:48.883Z,102305.53
2023-01-22T10:56:30.736Z,102324.34
2023-01-22T10:58:58.719Z,102290.88
2023-01-22T11:01:36.119Z,102332.94
2023-01-22T11:04:13.298Z,102327.19
2023-01-22T11:06:42.772Z,102326.59
2023-01-22T11:09:46.655Z,102318.53
2023-01-22T11:12:20.723Z,102316.41
2023-01-22T11:14:54.241Z,102309.66
2023-01-22T11:17:34.499Z,102322.28
2023-01-22T11:20:04.809Z,102315.28
2023-01-22T11:22:34.855Z,102317.59
2023-01-22T11:25:02.247Z,102305.50
2023-01-22T11:27:35.572Z,102297.22
2023-01-22T11:30:19.780Z,102320.69
2023-01-22T11:33:01.720Z,102312.38
2023-01-22T11:35:28.221Z,102312.47
2023-01-22T11:38:04.658Z,102312.50
2023-01-22T11:40:33.530Z,102307.91
2023-01-22T11:43:21.765Z,102273.13
2023-01-22T11:46:00.770Z,102310.47
2023-01-22T11:48:45.766Z,102323.53
2023-01-22T11:51:20.582Z,102317.66
2023-01-22T11:53:53.406Z,102296.25
2023-01-22T11:56:19.829Z,102309.88
2023-01-22T11:58:49.153Z,102294.97
2023-01-22T12:01:27.856Z,102314.50
2023-01-22T12:04:18.436Z,102289.78
2023-01-22T12:06:56.494Z,102304.28
2023-01-22T12:09:26.395Z,102310.59
2023-01-22T12:12:06.284Z,102310.41
2023-01-22T12:14:47.916Z,102307.84
2023-01-22T12:17:24.698Z,102310.22
2023-01-22T12:20:20.779Z,102313.44
2023-01-22T12:22:52.182Z,102305.25
2023-01-22T12:25:36.911Z,102307.28
2023-01-22T12:28:29.683Z,102299.81
2023-01-22T12:31:11.276Z,102310.31
2023-01-22T12:33:41.700Z,102304.09
2023-01-22T12:36:13.164Z,102308.50
2023-01-22T12:38:58.214Z,102316.34
2023-01-22T12:41:57.022Z,102318.00
2023-01-22T12:45:02.960Z,102302.41
2023-01-22T12:47:38.130Z,102314.69
2023-01-22T12:50:16.657Z,102319.25
2023-01-22T12:52:47.490Z,102291.38
2023-01-22T12:55:37.912Z,102307.06
2023-01-22T12:58:04.998Z,102312.75
2023-01-22T13:00:38.959Z,102315.19
2023-01-22T13:03:32.059Z,102278.09
2023-01-22T13:06:00.073Z,102314.31
2023-01-22T13:08:41.769Z,102327.97
2023-01-22T13:11:11.338Z,102314.16
2023-01-22T13:13:51.061Z,102326.38
2023-01-22T13:16:37.246Z,102314.00
2023-01-22T13:19:38.618Z,102297.09
2023-01-22T13:22:07.012Z,102327.63
2023-01-22T13:24:33.528Z,102297.09
2023-01-22T13:27:01.700Z,102316.78
2023-01-22T13:29:32.849Z,102314.16
2023-01-22T13:32:20.287Z,102274.84
2023-01-22T13:34:47.138Z,102313.47
2023-01-22T13:37:33.820Z,102321.75
2023-01-22T13:40:13.344Z,102304.31
2023-01-22T13:42:43.560Z,102320.19
2023-01-22T13:45:22.134Z,102317.38
2023-01-22T13:47:48.859Z,102292.03
2023-01-22T13:50:21.074Z,102325.34
2023-01-22T13:52:50.249Z,102299.41
2023-01-22T13:55:18.923Z,102340.13
2023-01-22T13:57:47.702Z,102305.13
2023-01-22T14:00:34.804Z,102332.34
2023-01-22T14:03:01.960Z,102334.25
2023-01-22T14:05:35.333Z,102336.41
2023-01-22T14:08:12.978Z,102332.22
2023-01-22T14:10:41.980Z,102337.44
2023-01-22T14:13:13.339Z,102329.06
2023-01-22T14:15:41.405Z,102332.56
2023-01-22T14:18:16.661Z,102331.66
2023-01-22T14:20:45.437Z,102336.69
2023-01-22T14:23:12.330Z,102335.28
2023-01-22T14:25:52.586Z,102339.56
2023-01-22T14:28:20.185Z,102341.06
2023-01-22T14:30:46.752Z,102348.75
2023-01-22T14:33:20.525Z,102322.28
2023-01-22T14:35:48.851Z,102344.66
2023-01-22T14:38:15.351Z,102351.31
2023-01-22T14:40:42.392Z,102351.94
2023-01-22T14:43:08.959Z,102343.53
2023-01-22T14:45:35.468Z,102357.22
2023-01-22T14:48:04.132Z,102359.50
2023-01-22T14:50:31.331Z,102352.06
2023-01-22T14:52:57.922Z,102336.88
2023-01-22T14:55:24.829Z,102363.63
2023-01-22T14:57:51.432Z,102367.44
2023-01-22T15:00:19.507Z,102377.81
2023-01-22T15:02:47.710Z,102365.13
2023-01-22T15:05:14.238Z,102381.34
2023-01-22T15:07:40.723Z,102366.03
2023-01-22T15:10:08.436Z,102335.47
2023-01-22T15:12:34.925Z,102354.25
2023-01-22T15:15:01.523Z,102354.31
2023-01-22T15:17:28.045Z,102387.69
2023-01-22T15:19:54.826Z,102390.31
2023-01-22T15:22:21.392Z,102391.72
2023-01-22T15:24:47.865Z,102402.44
2023-01-22T15:27:18.424Z,102408.47
2023-01-22T15:29:45.663Z,102405.28
2023-01-22T15:32:12.596Z,102356.78
2023-01-22T15:34:39.088Z,102408.09
2023-01-22T15:37:06.001Z,102407.69
2023-01-22T15:39:32.617Z,102409.91
2023-01-22T15:41:59.658Z,102401.19
2023-01-22T15:44:26.169Z,102422.63
2023-01-22T15:46:52.678Z,102410.44
2023-01-22T15:49:20.259Z,102421.59
2023-01-22T15:51:46.763Z,102378.50
2023-01-22T15:54:15.135Z,102408.75
2023-01-22T15:56:41.757Z,102388.84
2023-01-22T15:59:08.615Z,102418.41
2023-01-22T16:01:35.154Z,102404.81
2023-01-22T16:04:02.987Z,102417.75
2023-01-22T16:06:31.875Z,102422.19
2023-01-22T16:08:59.476Z,102393.78
2023-01-22T16:11:27.592Z,102377.34
2023-01-22T16:13:54.427Z,102366.41
2023-01-22T16:16:26.301Z,102420.16
2023-01-22T16:18:53.663Z,102390.78
2023-01-22T16:21:21.613Z,102422.75
2023-01-22T16:23:51.700Z,102403.09
2023-01-22T16:26:20.301Z,102410.06
2023-01-22T16:28:48.966Z,102419.47
2023-01-22T16:31:18.383Z,102421.00
2023-01-22T16:33:46.900Z,102395.78
2023-01-22T16:36:15.995Z,102425.13
2023-01-22T16:38:42.799Z,102417.19
2023-01-22T16:41:24.728Z,102423.31
2023-01-22T16:43:54.151Z,102424.97
2023-01-22T16:46:23.265Z,102421.38
2023-01-22T16:48:54.981Z,102430.19
2023-01-22T16:51:24.886Z,102399.75
2023-01-22T16:53:51.796Z,102428.91
2023-01-22T16:56:18.282Z,102439.03
2023-01-22T16:58:44.878Z,102387.00
2023-01-22T17:01:15.294Z,102425.22
2023-01-22T17:03:42.141Z,102420.69
2023-01-22T17:06:26.894Z,102424.28
2023-01-22T17:08:53.516Z,102390.56
2023-01-22T17:11:20.221Z,102418.84
2023-01-22T17:13:47.197Z,102413.94
2023-01-22T17:16:14.672Z,102421.81
2023-01-22T17:18:41.285Z,102422.56
2023-01-22T17:21:08.921Z,102412.00
2023-01-22T17:23:35.906Z,102414.94
2023-01-22T17:26:07.299Z,102406.41
2023-01-22T17:28:35.549Z,102423.31
2023-01-22T17:31:05.266Z,102429.34
2023-01-22T17:33:31.926Z,102392.88
2023-01-22T17:35:59.646Z,102433.09
2023-01-22T17:38:27.950Z,102413.16
2023-01-22T17:40:56.776Z,102438.94
2023-01-22T17:43:24.014Z,102442.41
2023-01-22T17:45:50.760Z,102415.78
2023-01-22T17:48:17.488Z,102445.38
2023-01-22T17:50:43.996Z,102445.22
2023-01-22T17:53:10.492Z,102448.88
2023-01-22T17:55:37.946Z,102455.78
2023-01-22T17:58:04.500Z,102453.75
2023-01-22T18:00:31.611Z,102453.63
2023-01-22T18:02:58.072Z,102463.88
2023-01-22T18:05:26.612Z,102467.09
2023-01-22T18:07:53.128Z,102464.28
2023-01-22T18:10:20.438Z,102468.25
2023-01-22T18:12:49.071Z,102471.84
2023-01-22T18:15:15.718Z,102436.25
2023-01-22T18:17:42.179Z,102422.28
2023-01-22T18:20:09.351Z,102469.63
2023-01-22T18:22:35.857Z,102472.09
2023-01-22T18:25:02.520Z,102465.75
2023-01-22T18:27:29.026Z,102473.13
2023-01-22T18:29:55.785Z,102473.88
2023-01-22T18:32:22.467Z,102474.75
2023-01-22T18:34:48.962Z,102478.28
2023-01-22T18:37:15.460Z,102479.00
2023-01-22T18:39:42.045Z,102478.09
2023-01-22T18:42:08.915Z,102488.13
2023-01-22T18:44:35.388Z,102482.50
2023-01-22T18:47:02.098Z,102425.03
2023-01-22T18:49:29.043Z,102482.25
2023-01-22T18:51:59.183Z,102486.41
2023-01-22T18:54:25.738Z,102486.28
2023-01-22T18:56:52.250Z,102441.28
2023-01-22T18:59:18.924Z,102499.47
2023-01-22T19:01:51.232Z,102489.56
2023-01-22T19:04:21.517Z,102497.94
2023-01-22T19:06:52.954Z,102501.25
2023-01-22T19:09:19.799Z,102466.38
2023-01-22T19:11:48.357Z,102504.53
2023-01-22T19:14:17.229Z,102505.66
2023-01-22T19:16:48.217Z,102485.72
2023-01-22T19:19:15.952Z,102510.81
2023-01-22T19:21:46.730Z,102510.81
2023-01-22T19:24:15.423Z,102514.72
2023-01-22T19:26:43.932Z,102508.28
2023-01-22T19:29:14.466Z,102517.03
2023-01-22T19:31:43.225Z,102516.25
2023-01-22T19:34:11.754Z,102519.75
2023-01-22T19:36:38.899Z,102508.78
2023-01-22T19:39:09.543Z,102519.75
2023-01-22T19:41:37.537Z,102516.59
2023-01-22T19:44:04.355Z,102519.03
2023-01-22T19:46:30.957Z,102518.25
2023-01-22T19:48:57.800Z,102473.38
2023-01-22T19:51:26.804Z,102518.63
2023-01-22T19:53:54.438Z,102508.34
2023-01-22T19:56:26.044Z,102515.88
2023-01-22T19:58:54.146Z,102506.28
2023-01-22T20:01:21.505Z,102522.19
2023-01-22T20:03:48.068Z,102531.47
2023-01-22T20:06:16.079Z,102534.91
2023-01-22T20:08:42.886Z,102496.66
2023-01-22T20:11:11.421Z,102522.16
2023-01-22T20:13:38.494Z,102522.22
2023-01-22T20:16:06.783Z,102536.25
2023-01-22T20:18:39.419Z,102543.03
2023-01-22T20:21:06.501Z,102511.91
2023-01-22T20:23:33.077Z,102544.88
2023-01-22T20:26:00.483Z,102553.25
2023-01-22T20:28:26.940Z,102537.13
2023-01-22T20:30:59.018Z,102550.66
2023-01-22T20:33:26.332Z,102525.47
2023-01-22T20:36:01.744Z,102550.97
2023-01-22T20:38:28.747Z,102551.44
2023-01-22T20:40:55.419Z,102519.91
2023-01-22T20:43:22.215Z,102556.34
2023-01-22T20:45:59.302Z,102551.16
2023-01-22T20:48:25.767Z,102548.88
2023-01-22T20:50:52.498Z,102477.09
2023-01-22T20:53:19.854Z,102541.00
2023-01-22T20:55:46.594Z,102553.13
2023-01-22T20:58:13.112Z,102478.44
2023-01-22T21:00:39.871Z,102551.75
2023-01-22T21:03:06.397Z,102547.47
2023-01-22T21:05:32.920Z,102553.38
2023-01-22T21:08:01.728Z,102523.06
2023-01-22T21:10:28.238Z,102533.31
2023-01-22T21:12:54.764Z,102563.44
2023-01-22T21:15:21.274Z,102568.00
2023-01-22T21:17:48.007Z,102568.53
2023-01-22T21:20:14.517Z,102506.91
2023-01-22T21:22:42.328Z,102526.50
2023-01-22T21:25:09.099Z,102541.81
2023-01-22T21:27:35.559Z,102557.06
2023-01-22T21:30:02.020Z,102568.72
2023-01-22T21:32:30.564Z,102561.59
2023-01-22T21:34:57.196Z,102566.69
2023-01-22T21:37:23.720Z,102570.91
2023-01-22T21:39:50.193Z,102564.66
2023-01-22T21:42:35.212Z,102563.44
2023-01-22T21:45:20.178Z,102556.22
2023-01-22T21:47:47.011Z,102564.16
2023-01-22T21:50:13.790Z,102564.84
2023-01-22T21:52:42.479Z,102562.31
2023-01-22T21:55:10.112Z,102568.63
2023-01-22T21:57:37.820Z,102570.50
2023-01-22T22:00:04.657Z,102565.16
2023-01-22T22:02:31.201Z,102570.28
2023-01-22T22:04:59.822Z,102563.03
2023-01-22T22:07:26.317Z,102566.88
2023-01-22T22:09:52.755Z,102564.09
2023-01-22T22:12:19.280Z,102562.16
2023-01-22T22:14:45.737Z,102553.63
2023-01-22T22:17:12.402Z,102559.69
2023-01-22T22:19:39.035Z,102558.34
2023-01-22T22:22:05.534Z,102559.88
2023-01-22T22:24:32.025Z,102559.13
2023-01-22T22:26:58.525Z,102566.03
2023-01-22T22:29:25.066Z,102564.50
2023-01-22T22:31:51.615Z,102574.84
2023-01-22T22:34:18.164Z,102569.84
2023-01-22T22:36:44.672Z,102574.13
2023-01-22T22:39:11.154Z,102550.41
2023-01-22T22:41:39.196Z,102558.53
2023-01-22T22:44:06.459Z,102577.72
2023-01-22T22:46:35.396Z,102577.50
2023-01-22T22:49:03.154Z,102572.94
2023-01-22T22:51:32.292Z,102585.19
2023-01-22T22:54:01.386Z,102582.72
2023-01-22T22:56:28.471Z,102575.72
2023-01-22T22:58:55.836Z,102583.34
2023-01-22T23:01:25.010Z,102590.84
2023-01-22T23:03:52.189Z,102597.66
2023-01-22T23:06:25.368Z,102581.59
2023-01-22T23:08:53.829Z,102592.28
2023-01-22T23:11:26.971Z,102600.41
2023-01-22T23:13:54.109Z,102596.16
2023-01-22T23:16:22.451Z,102590.59
2023-01-22T23:18:51.075Z,102594.59
2023-01-22T23:21:22.972Z,102597.44
2023-01-22T23:23:50.492Z,102575.06
2023-01-22T23:26:27.878Z,102593.44
2023-01-22T23:28:57.863Z,102578.41
2023-01-22T23:31:25.461Z,102603.13
2023-01-22T23:33:52.189Z,102600.84
2023-01-22T23:36:18.683Z,102602.06
2023-01-22T23:38:45.633Z,102576.50
2023-01-22T23:41:14.517Z,102610.84
2023-01-22T23:43:41.885Z,102590.16
2023-01-22T23:46:10.339Z,102605.41
2023-01-22T23:48:37.046Z,102608.72
2023-01-22T23:51:04.087Z,102603.09
2023-01-22T23:53:30.596Z,102576.38
2023-01-22T23:56:01.118Z,102599.59
2023-01-22T23:58:28.586Z,102609.94
